• Join FlightAware (Why Join?)
  • Login
  • US Flag 
05:52PM EDT


 

Airport Tracker/Info


-or-


 

Live Flight TrackerFlight Track Log ✈ SKW5631 ✈ 05-May-2013 ✈ KSFO - KBUR

Flight Track Log - Related Links

Times and Time Zones

All times are in EDT time to prevent confusion due to time zone crossing. See the SKW5631 flight status page for this flight to view local times or setup timezone preferences in your user account.

Time Position Orientation Groundspeed Altitude Reporting Facility
EDT Latitude Longitude Course Direction KTS MPH feet Rate Location/Type
10:49PM 37.6106 -122.3478 105° East 152 175 1,100  Level Oakland Center
10:50PM 37.5972 -122.2869 105° East 186 214 3,200 2,220 Climbing Oakland Center
10:51PM 37.5719 -122.2119 113° Southeast 219 252 5,700 2,700 Climbing Oakland Center
10:52PM 37.5131 -122.1642 147° Southeast 251 289 8,800 2,760 Climbing Oakland Center
10:53PM 37.4500 -122.1136 148° Southeast 266 306 11,400 1,860 Climbing Oakland Center
10:54PM 37.3800 -122.0547 146° Southeast 300 345 12,700 1,620 Climbing Oakland Center
10:55PM 37.3025 -121.9897 146° Southeast 332 382 14,700 1,860 Climbing Oakland Center
10:56PM 37.2236 -121.9253 147° Southeast 339 390 16,600 1,860 Climbing Oakland Center
10:57PM 37.1406 -121.8603 148° Southeast 350 403 18,600 1,620 Climbing Oakland Center
10:58PM 37.0556 -121.7886 146° Southeast 365 420 19,900 1,260 Climbing Oakland Center
10:59PM 36.9675 -121.7167 147° Southeast 375 432 21,200 1,320 Climbing Oakland Center
11:00PM 36.8856 -121.6314 140° Southeast 381 438 22,600 1,440 Climbing Oakland Center
11:01PM 36.7919 -121.5344 140° Southeast 381 438 24,200 1,200 Climbing Oakland Center
11:02PM 36.7089 -121.4511 141° Southeast 382 440 25,100 840 Climbing Oakland Center
11:03PM 36.6239 -121.3669 142° Southeast 388 447 26,000 840 Climbing Oakland Center
11:04PM 36.5383 -121.2806 141° Southeast 394 453 26,900 480 Climbing Oakland Center
11:05PM 36.4494 -121.1947 142° Southeast 403 464 27,000  Climbing Oakland Center
11:06PM 36.3589 -121.1017 140° Southeast 417 480 27,000  Level Oakland Center
11:07PM 36.2664 -121.0083 141° Southeast 427 491 27,000  Level Oakland Center
11:08PM 36.1719 -120.9167 142° Southeast 430 495 27,000  Level Oakland Center
11:09PM 36.0792 -120.8244 141° Southeast 429 494 27,000  Level Oakland Center
11:10PM 35.9669 -120.7133 141° Southeast 431 496 27,000  Level Oakland Center
11:11PM 35.8731 -120.6211 141° Southeast 431 496 27,000  Level Oakland Center
11:12PM 35.7789 -120.5294 142° Southeast 431 496 27,000  Level Oakland Center
11:13PM 35.6842 -120.4375 142° Southeast 432 497 27,000  Level Oakland Center
11:14PM 35.5889 -120.3447 142° Southeast 433 498 27,000  Level Oakland Center
11:15PM 35.4908 -120.2514 142° Southeast 436 502 27,000  Level Oakland Center
11:16PM 35.3936 -120.1558 141° Southeast 437 503 27,000  Level Oakland Center
11:17PM 35.2967 -120.0617 142° Southeast 439 505 27,000  Level Oakland Center
11:17PM 35.2775 -120.0428 141° Southeast 440 506 27,000 -780 Level Los Angeles Center
11:18PM 35.1814 -119.9497 142° Southeast 440 506 26,000 -1,680 Descending Los Angeles Center
11:19PM 35.0861 -119.8553 141° Southeast 440 506 23,600 -2,400 Descending Los Angeles Center
11:20PM 35.0025 -119.7411 132° Southeast 452 520 21,100 -2,700 Descending Los Angeles Center
11:21PM 34.9056 -119.6119 132° Southeast 429 494 18,100 -2,460 Descending Los Angeles Center
11:22PM 34.8339 -119.5158 132° Southeast 386 444 16,200 -1,860 Descending Los Angeles Center
11:24PM 34.7706 -119.4308 132° Southeast 341 392 14,400 -1,740 Descending Los Angeles Center
11:25PM 34.7111 -119.3511 132° Southeast 321 369 12,700 -1,380 Descending Los Angeles Center
11:26PM 34.6533 -119.2733 132° Southeast 311 358 11,600 -840 Descending Los Angeles Center
11:27PM 34.5903 -119.1906 133° Southeast 302 348 11,000 -720 Descending Los Angeles Center
11:28PM 34.5367 -119.1214 133° Southeast 289 333 10,200 -1,020 Descending Los Angeles Center
11:29PM 34.4853 -119.0519 132° Southeast 272 313 9,000 -900 Descending Los Angeles Center
11:30PM 34.4361 -118.9861 132° Southeast 264 304 8,200 -540 Descending Los Angeles Center
11:31PM 34.3772 -118.9064 132° Southeast 263 303 7,800 -720 Descending Los Angeles Center
11:32PM 34.3339 -118.8358 127° Southeast 261 300 6,800 -1,020 Descending Los Angeles Center
11:33PM 34.2936 -118.7706 127° Southeast 246 283 5,800 -1,080 Descending Los Angeles Center
11:34PM 34.2533 -118.7028 126° Southeast 246 283 4,700 -900 Descending Los Angeles Center
11:35PM 34.2122 -118.6322 125° Southeast 214 246 4,000 -540 Descending Los Angeles Center
11:35PM 34.2000 -118.6167 134° Southeast 190 219 4,000  Level Southern California TRACON
11:36PM 34.2000 -118.5667 90° East 159 183 4,000 -480 Level Southern California TRACON
11:37PM 34.2000 -118.5000 90° East 158 182 3,100 -900 Descending Southern California TRACON
11:38PM 34.2000 -118.4667 90° East 147 169 2,400 -900 Descending Southern California TRACON
11:39PM 34.2000 -118.4167 90° East 139 160 1,500 -540 Descending Southern California TRACON
11:41PM 34.1992 -118.3419 91° East 146 168 900 -360 Descending Los Angeles Center